Time;durP1;ratioP1;P1;durP2;ratioP2;P2;SDS_P1;SDS_P2;PMS_P1;PMS_P2;Temp;Humidity;BMP_temperature;BMP_pressure;BME280_temperature;BME280_humidity;BME280_pressure;Samples;Min_cycle;Max_cycle;Signal;HPM_P1;HPM_P2
2021/09/02 00:01:57;;;;;;;3.67;3.33;;;16.80;34.40;;;;;;10526453;28;20215;-78
2021/09/02 00:07:02;;;;;;;3.17;2.97;;;16.70;34.70;;;;;;10526470;28;20226;-78
2021/09/02 00:12:06;;;;;;;3.47;3.23;;;16.70;35.00;;;;;;10523509;28;20224;-78
2021/09/02 00:17:09;;;;;;;3.53;2.70;;;16.60;34.80;;;;;;10532189;28;20779;-78
2021/09/02 00:22:14;;;;;;;3.30;3.00;;;16.50;34.60;;;;;;10534891;28;20312;-78
2021/09/02 00:27:17;;;;;;;3.13;2.83;;;16.50;35.00;;;;;;10533601;28;20310;-78
2021/09/02 00:32:21;;;;;;;3.07;2.77;;;16.50;34.80;;;;;;10532871;28;20688;-81
2021/09/02 00:37:25;;;;;;;3.53;3.23;;;16.50;34.80;;;;;;10538239;28;20234;-78
2021/09/02 00:42:28;;;;;;;3.43;3.13;;;16.50;35.00;;;;;;10530195;28;20219;-77
2021/09/02 00:47:32;;;;;;;3.20;3.00;;;16.50;34.90;;;;;;10524478;28;20250;-78
2021/09/02 00:52:36;;;;;;;2.97;2.77;;;16.40;34.90;;;;;;10531250;28;20238;-78
2021/09/02 00:57:40;;;;;;;3.03;2.83;;;16.40;35.10;;;;;;10532552;28;20218;-78
2021/09/02 01:02:44;;;;;;;3.70;3.30;;;16.40;35.00;;;;;;10532989;28;20238;-79
2021/09/02 01:07:50;;;;;;;3.20;3.00;;;16.30;34.90;;;;;;10531898;28;20212;-78
2021/09/02 01:12:53;;;;;;;5.50;3.13;;;16.30;35.30;;;;;;10531175;28;20251;-78
2021/09/02 01:17:58;;;;;;;3.83;3.53;;;16.20;35.00;;;;;;10530798;28;20404;-78
2021/09/02 01:23:05;;;;;;;3.83;3.53;;;16.20;35.20;;;;;;10529536;28;20223;-78
2021/09/02 01:28:11;;;;;;;3.43;3.13;;;16.20;35.40;;;;;;10530746;28;20711;-78
2021/09/02 01:33:15;;;;;;;3.70;3.40;;;16.10;35.40;;;;;;10524387;28;20239;-78
2021/09/02 01:38:19;;;;;;;3.30;3.00;;;16.00;35.20;;;;;;10525366;28;20231;-78
2021/09/02 01:43:23;;;;;;;3.40;3.10;;;16.00;35.10;;;;;;10528831;28;20715;-77
2021/09/02 01:48:26;;;;;;;3.87;3.57;;;15.90;35.20;;;;;;10525113;28;20233;-78
2021/09/02 01:53:30;;;;;;;3.20;3.00;;;15.90;35.20;;;;;;10527733;28;20310;-78
2021/09/02 01:58:35;;;;;;;3.63;3.10;;;15.90;35.10;;;;;;10528762;28;20238;-78
2021/09/02 02:03:38;;;;;;;3.43;3.13;;;15.70;35.10;;;;;;10529653;28;20228;-79
2021/09/02 02:08:41;;;;;;;4.07;3.20;;;15.70;35.10;;;;;;10530034;28;20731;-79
2021/09/02 02:13:46;;;;;;;3.40;3.10;;;15.50;35.20;;;;;;10527026;28;20250;-79
2021/09/02 02:18:49;;;;;;;3.00;2.70;;;15.50;35.60;;;;;;10526880;28;20568;-78
2021/09/02 02:23:52;;;;;;;2.60;2.40;;;15.40;35.40;;;;;;10528706;28;20223;-78
2021/09/02 02:28:59;;;;;;;3.27;2.97;;;15.40;35.40;;;;;;10521678;28;20310;-78
2021/09/02 02:34:02;;;;;;;3.07;2.87;;;15.40;35.70;;;;;;10527594;28;20226;-78
2021/09/02 02:39:06;;;;;;;3.33;3.07;;;15.30;35.50;;;;;;10527971;28;20230;-78
2021/09/02 02:44:10;;;;;;;3.70;3.37;;;15.30;35.50;;;;;;10526607;28;20224;-78
2021/09/02 02:49:13;;;;;;;3.53;3.23;;;15.30;35.70;;;;;;10528663;28;20602;-78
2021/09/02 02:54:16;;;;;;;2.70;2.50;;;15.20;35.50;;;;;;10528749;28;20228;-79
2021/09/02 02:59:21;;;;;;;3.20;2.90;;;15.20;35.60;;;;;;10528529;28;20231;-78
2021/09/02 03:04:24;;;;;;;2.70;2.50;;;15.10;35.70;;;;;;10527306;28;20232;-78
2021/09/02 03:09:27;;;;;;;2.50;2.30;;;15.10;35.60;;;;;;10523323;28;20237;-79
2021/09/02 03:14:32;;;;;;;3.17;2.77;;;15.10;35.60;;;;;;10528093;28;20234;-78
2021/09/02 03:19:35;;;;;;;2.90;2.70;;;15.10;35.90;;;;;;10523046;28;20258;-79
2021/09/02 03:24:38;;;;;;;3.00;2.43;;;15.00;35.70;;;;;;10527518;28;20231;-78
2021/09/02 03:29:43;;;;;;;2.80;2.60;;;15.00;35.60;;;;;;10527356;28;20238;-78
2021/09/02 03:34:46;;;;;;;3.03;2.80;;;14.90;35.70;;;;;;10522609;28;20219;-78
2021/09/02 03:39:49;;;;;;;3.47;3.23;;;14.90;35.60;;;;;;10526742;28;20223;-78
2021/09/02 03:44:54;;;;;;;4.23;3.80;;;14.90;35.70;;;;;;10523117;28;20720;-78
2021/09/02 03:49:57;;;;;;;2.93;2.73;;;14.90;35.90;;;;;;10528486;28;20223;-81
2021/09/02 03:55:00;;;;;;;3.50;2.70;;;14.80;36.30;;;;;;10526490;28;20243;-78
2021/09/02 04:00:07;;;;;;;2.77;2.50;;;14.70;35.50;;;;;;10525684;28;20672;-78
2021/09/02 04:05:11;;;;;;;2.87;2.67;;;14.60;35.90;;;;;;10528240;28;20219;-79
2021/09/02 04:10:14;;;;;;;3.23;2.90;;;14.60;35.80;;;;;;10524237;28;20261;-78
2021/09/02 04:15:19;;;;;;;2.40;2.20;;;14.50;35.80;;;;;;10525981;28;20235;-78
2021/09/02 04:20:22;;;;;;;2.50;2.30;;;14.50;36.10;;;;;;10521590;28;20232;-78
2021/09/02 04:25:25;;;;;;;2.33;2.17;;;14.50;36.00;;;;;;10523689;28;20309;-79
2021/09/02 04:30:30;;;;;;;2.37;2.20;;;14.40;35.80;;;;;;10524843;28;20714;-78
2021/09/02 04:35:33;;;;;;;2.80;2.50;;;14.40;36.20;;;;;;10524324;28;20225;-78
2021/09/02 04:40:36;;;;;;;2.30;2.10;;;14.40;36.00;;;;;;10522103;28;20219;-78
2021/09/02 04:45:41;;;;;;;3.30;2.73;;;14.30;35.90;;;;;;10525341;28;20234;-78
2021/09/02 04:50:46;;;;;;;3.80;2.93;;;14.30;36.10;;;;;;10524160;28;20223;-78
2021/09/02 04:55:50;;;;;;;2.97;2.60;;;14.20;36.10;;;;;;10524190;28;20223;-77
2021/09/02 05:00:54;;;;;;;2.30;2.10;;;14.20;36.00;;;;;;10525260;28;20235;-78
2021/09/02 05:05:58;;;;;;;2.60;2.40;;;14.20;36.50;;;;;;10529402;28;20220;-78
2021/09/02 05:11:01;;;;;;;2.67;2.00;;;14.10;36.30;;;;;;10530678;28;20239;-81
2021/09/02 05:16:06;;;;;;;3.73;2.20;;;14.10;36.40;;;;;;10532020;28;20223;-77
2021/09/02 05:21:12;;;;;;;2.53;2.33;;;14.10;36.80;;;;;;10529331;28;20224;-78
2021/09/02 05:26:15;;;;;;;3.50;3.20;;;14.10;36.90;;;;;;10530959;28;20236;-78
2021/09/02 05:31:20;;;;;;;3.63;3.10;;;14.10;36.90;;;;;;10529418;28;20220;-78
2021/09/02 05:36:23;;;;;;;4.00;3.70;;;14.10;37.30;;;;;;10529831;28;20228;-78
2021/09/02 05:41:26;;;;;;;4.20;3.80;;;14.00;37.40;;;;;;10532172;28;21071;-77
2021/09/02 05:46:31;;;;;;;5.10;4.37;;;14.00;37.40;;;;;;10528505;28;20240;-77
2021/09/02 05:51:34;;;;;;;6.27;4.07;;;14.00;38.20;;;;;;10527407;28;20230;-77
2021/09/02 05:56:37;;;;;;;4.67;4.27;;;14.10;38.10;;;;;;10528331;28;20242;-77
2021/09/02 06:01:43;;;;;;;4.83;4.40;;;14.10;38.10;;;;;;10528979;28;20220;-77
2021/09/02 06:06:47;;;;;;;5.40;4.90;;;14.20;38.90;;;;;;10528943;28;20597;-77
2021/09/02 06:11:50;;;;;;;5.13;4.70;;;14.20;38.50;;;;;;10528691;28;20222;-77
2021/09/02 06:16:55;;;;;;;4.97;4.53;;;14.30;38.70;;;;;;10526063;28;20229;-77
2021/09/02 06:21:58;;;;;;;5.60;5.10;;;14.40;39.60;;;;;;10526457;28;20317;-76
2021/09/02 06:27:02;;;;;;;4.80;4.40;;;14.40;39.20;;;;;;10532862;28;20703;-77
2021/09/02 06:32:07;;;;;;;5.47;4.97;;;14.50;40.00;;;;;;10529147;28;20280;-75
2021/09/02 06:37:11;;;;;;;5.80;5.30;;;14.60;40.90;;;;;;10527549;28;20614;-76
2021/09/02 06:42:14;;;;;;;6.50;5.87;;;14.80;40.30;;;;;;10528885;28;20227;-76
2021/09/02 06:47:19;;;;;;;6.30;5.70;;;15.00;40.50;;;;;;10530015;28;20734;-75
2021/09/02 06:52:22;;;;;;;6.97;6.37;;;15.10;41.10;;;;;;10532049;28;20253;-75
2021/09/02 06:57:25;;;;;;;8.00;6.20;;;15.20;40.80;;;;;;10530155;28;20223;-76
2021/09/02 07:02:30;;;;;;;6.60;6.00;;;15.30;40.80;;;;;;10530496;28;20227;-76
2021/09/02 07:07:33;;;;;;;6.93;6.27;;;15.40;41.80;;;;;;10527279;28;20251;-76
2021/09/02 07:12:36;;;;;;;7.00;6.30;;;15.50;41.30;;;;;;10526521;28;20227;-76
2021/09/02 07:17:41;;;;;;;7.83;7.13;;;15.60;41.30;;;;;;10526723;28;20239;-77
2021/09/02 07:22:44;;;;;;;6.87;6.30;;;15.80;42.50;;;;;;10525244;28;20228;-77
2021/09/02 07:27:47;;;;;;;7.00;6.40;;;15.90;41.80;;;;;;10523054;28;20697;-76
2021/09/02 07:32:52;;;;;;;7.23;6.50;;;16.00;42.00;;;;;;10526792;28;20225;-76
2021/09/02 07:37:56;;;;;;;8.07;7.37;;;16.10;43.00;;;;;;10528051;28;20630;-78
2021/09/02 07:43:00;;;;;;;7.33;6.63;;;16.30;43.10;;;;;;10528925;28;20334;-77
2021/09/02 07:48:05;;;;;;;8.03;7.00;;;16.50;43.00;;;;;;10526093;28;20225;-76
2021/09/02 07:53:09;;;;;;;6.77;6.17;;;16.70;43.50;;;;;;10524967;28;20246;-77
2021/09/02 07:58:14;;;;;;;6.33;5.73;;;16.90;43.30;;;;;;10520692;28;20231;-76
2021/09/02 08:03:21;;;;;;;7.87;7.17;;;17.20;43.40;;;;;;10532209;28;20311;-77
2021/09/02 08:08:25;;;;;;;7.20;6.60;;;17.50;44.10;;;;;;10531258;28;20633;-77
2021/09/02 08:13:29;;;;;;;6.73;6.20;;;17.70;43.60;;;;;;10532061;28;20772;-77
2021/09/02 08:18:35;;;;;;;6.20;5.70;;;18.00;43.60;;;;;;10531367;28;20239;-76
2021/09/02 08:23:38;;;;;;;6.27;5.67;;;18.40;43.20;;;;;;10528933;28;20358;-75
2021/09/02 08:28:42;;;;;;;6.53;6.00;;;18.70;43.00;;;;;;10525246;28;20593;-76
2021/09/02 08:33:46;;;;;;;6.03;5.43;;;19.10;42.60;;;;;;10524713;28;20239;-77
2021/09/02 08:38:50;;;;;;;6.37;5.83;;;19.50;42.30;;;;;;10534100;28;20230;-76
2021/09/02 08:43:53;;;;;;;6.17;5.67;;;19.80;42.10;;;;;;10533894;28;20223;-76
2021/09/02 08:49:12;;;;;;;6.20;5.60;;;20.20;41.60;;;;;;10532727;28;20310;-77
2021/09/02 08:54:15;;;;;;;6.57;5.80;;;20.60;40.30;;;;;;10528547;28;20231;-77
2021/09/02 08:59:18;;;;;;;6.10;5.60;;;20.90;40.80;;;;;;10526775;28;20234;-75
2021/09/02 09:04:23;;;;;;;6.63;5.63;;;21.20;40.40;;;;;;10529572;28;20238;-75
2021/09/02 09:09:27;;;;;;;6.23;5.63;;;21.50;39.90;;;;;;10525455;28;20216;-76
2021/09/02 09:14:31;;;;;;;6.07;5.57;;;21.70;39.70;;;;;;10525826;28;20228;-76
2021/09/02 09:19:41;;;;;;;6.30;5.70;;;22.00;38.90;;;;;;10526656;28;20227;-77
2021/09/02 09:24:48;;;;;;;5.93;5.43;;;22.20;37.70;;;;;;10531481;28;20254;-76
2021/09/02 09:30:13;;;;;;;5.53;5.03;;;22.40;37.60;;;;;;10532451;28;20224;-76
2021/09/02 09:35:20;;;;;;;6.10;5.60;;;22.60;37.40;;;;;;10533946;28;20223;-76
2021/09/02 09:40:25;;;;;;;5.97;5.47;;;22.80;36.70;;;;;;10534877;28;20243;-76
2021/09/02 09:45:50;;;;;;;6.13;5.53;;;23.00;36.60;;;;;;10528049;28;20249;-75
2021/09/02 09:51:10;;;;;;;5.83;5.33;;;23.10;36.60;;;;;;10530809;28;20766;-76
2021/09/02 09:56:17;;;;;;;5.77;5.27;;;23.30;36.20;;;;;;10525846;28;20212;-75
2021/09/02 10:01:20;;;;;;;5.40;5.00;;;23.40;36.40;;;;;;10526960;28;20601;-75
2021/09/02 10:06:26;;;;;;;5.87;5.27;;;23.60;36.10;;;;;;10524167;28;20223;-77
2021/09/02 10:11:29;;;;;;;5.40;4.90;;;23.80;34.90;;;;;;10525552;28;20226;-77
2021/09/02 10:16:32;;;;;;;5.13;4.73;;;23.90;35.70;;;;;;10522639;28;20224;-77
2021/09/02 10:21:38;;;;;;;5.63;5.17;;;24.10;35.50;;;;;;10524489;28;20227;-76
2021/09/02 10:26:41;;;;;;;5.67;4.80;;;24.20;34.70;;;;;;10526026;28;20234;-77
2021/09/02 10:31:44;;;;;;;4.83;4.43;;;24.30;34.80;;;;;;10525352;28;20219;-77
2021/09/02 10:36:48;;;;;;;5.10;4.57;;;24.40;34.20;;;;;;10525653;28;20227;-77
2021/09/02 10:41:52;;;;;;;4.57;4.20;;;24.50;33.30;;;;;;10528599;28;20231;-77
2021/09/02 10:46:55;;;;;;;5.20;4.70;;;24.60;33.80;;;;;;10526839;28;20228;-75
2021/09/02 10:52:02;;;;;;;5.77;4.60;;;24.60;33.60;;;;;;10532142;28;20891;-74
2021/09/02 10:57:08;;;;;;;4.80;4.40;;;24.70;32.80;;;;;;10528053;28;20224;-74
2021/09/02 11:02:32;;;;;;;4.80;4.40;;;24.80;32.90;;;;;;10531050;28;20224;-76
2021/09/02 11:07:38;;;;;;;4.33;4.03;;;24.90;32.70;;;;;;10531457;28;20634;-73
2021/09/02 11:12:42;;;;;;;4.77;4.37;;;25.00;32.50;;;;;;10530182;28;20228;-74
2021/09/02 11:17:51;;;;;;;4.60;4.17;;;25.10;32.90;;;;;;10528847;28;20284;-74
2021/09/02 11:23:18;;;;;;;4.20;3.80;;;25.10;31.00;;;;;;10530765;28;20237;-74
2021/09/02 11:28:23;;;;;;;4.23;3.93;;;25.20;30.90;;;;;;10529591;28;20273;-74
2021/09/02 11:33:26;;;;;;;4.83;4.43;;;25.20;31.20;;;;;;10527985;28;20235;-74
2021/09/02 11:38:31;;;;;;;4.90;4.50;;;25.30;31.60;;;;;;10526558;28;20231;-74
2021/09/02 11:43:39;;;;;;;4.93;4.53;;;25.30;31.40;;;;;;10526683;28;20234;-75
2021/09/02 11:48:46;;;;;;;4.40;4.00;;;25.30;30.70;;;;;;10524297;28;20231;-74
2021/09/02 11:54:03;;;;;;;4.40;4.00;;;25.40;30.10;;;;;;10525027;28;20269;-74
2021/09/02 11:59:10;;;;;;;3.97;3.60;;;25.40;29.70;;;;;;10528212;28;20245;-73
2021/09/02 12:04:19;;;;;;;4.93;4.00;;;25.40;30.40;;;;;;10525262;28;20224;-73
2021/09/02 12:09:29;;;;;;;4.43;4.03;;;25.50;28.90;;;;;;10527462;28;20251;-73
2021/09/02 12:14:34;;;;;;;6.07;4.27;;;25.40;28.90;;;;;;10535303;28;20223;-74
2021/09/02 12:19:54;;;;;;;4.77;4.20;;;25.40;29.50;;;;;;10534655;28;20228;-74
2021/09/02 12:25:12;;;;;;;4.03;3.73;;;25.40;28.90;;;;;;10535875;28;20318;-75
2021/09/02 12:30:18;;;;;;;5.00;4.60;;;25.40;28.90;;;;;;10527775;28;20226;-75
2021/09/02 12:35:21;;;;;;;4.83;4.43;;;25.50;28.90;;;;;;10527822;28;20223;-75
2021/09/02 12:40:26;;;;;;;6.43;4.83;;;25.40;29.40;;;;;;10530372;28;20254;-75
2021/09/02 12:45:29;;;;;;;5.07;4.40;;;25.40;29.00;;;;;;10533445;28;20235;-75
2021/09/02 12:50:33;;;;;;;4.63;4.23;;;25.40;29.70;;;;;;10528703;28;20223;-75
2021/09/02 12:55:38;;;;;;;4.60;4.20;;;25.50;29.70;;;;;;10530298;28;20242;-76
2021/09/02 13:00:41;;;;;;;5.10;4.70;;;25.50;28.90;;;;;;10526613;28;20226;-74
2021/09/02 13:05:50;;;;;;;4.63;4.23;;;25.50;29.40;;;;;;10535523;28;20789;-76
2021/09/02 13:10:54;;;;;;;4.50;4.20;;;25.60;29.00;;;;;;10529822;28;20220;-76
2021/09/02 13:15:58;;;;;;;4.47;4.17;;;25.60;29.00;;;;;;10530617;28;20216;-75
2021/09/02 13:21:01;;;;;;;4.27;3.97;;;25.60;29.00;;;;;;10526462;28;20314;-76
2021/09/02 13:26:05;;;;;;;5.40;4.77;;;25.50;28.90;;;;;;10529122;28;20216;-76
2021/09/02 13:31:10;;;;;;;4.47;4.17;;;25.60;28.60;;;;;;10532443;28;20231;-76
2021/09/02 13:36:13;;;;;;;4.67;4.27;;;25.60;29.00;;;;;;10528738;28;20306;-75
2021/09/02 13:41:19;;;;;;;4.93;4.53;;;25.60;29.00;;;;;;10527447;28;20295;-76
2021/09/02 13:46:22;;;;;;;4.60;4.17;;;25.50;28.50;;;;;;10525741;27;20220;-74
2021/09/02 13:51:25;;;;;;;4.80;4.40;;;25.60;29.00;;;;;;10527661;28;20257;-74
2021/09/02 13:56:30;;;;;;;4.80;4.40;;;25.60;29.00;;;;;;10527019;28;20278;-74
2021/09/02 14:01:33;;;;;;;4.60;4.20;;;25.60;28.90;;;;;;10523139;28;20223;-75
2021/09/02 14:06:37;;;;;;;4.53;4.10;;;25.70;29.00;;;;;;10526614;28;20227;-76
2021/09/02 14:11:42;;;;;;;4.70;4.30;;;25.70;29.10;;;;;;10526057;28;20302;-73
2021/09/02 14:16:45;;;;;;;4.60;4.20;;;25.80;28.60;;;;;;10525825;28;20311;-72
2021/09/02 14:21:49;;;;;;;4.90;4.50;;;25.80;29.10;;;;;;10524457;28;20227;-74
2021/09/02 14:26:53;;;;;;;4.40;4.00;;;25.90;28.00;;;;;;10528728;28;20258;-75
2021/09/02 14:31:56;;;;;;;5.17;4.70;;;25.90;27.40;;;;;;10524250;28;20222;-74
2021/09/02 14:37:00;;;;;;;4.93;4.53;;;25.90;28.00;;;;;;10527674;28;20216;-74
2021/09/02 14:42:05;;;;;;;4.40;4.00;;;25.80;28.10;;;;;;10528001;28;20227;-74
2021/09/02 14:47:08;;;;;;;4.53;4.13;;;25.80;27.40;;;;;;10530737;28;20693;-74
2021/09/02 14:52:11;;;;;;;4.30;3.90;;;25.90;27.70;;;;;;10527259;28;20567;-74
2021/09/02 14:57:15;;;;;;;4.90;4.50;;;25.90;27.70;;;;;;10529340;28;20587;-75
2021/09/02 15:02:19;;;;;;;4.40;4.00;;;25.90;27.10;;;;;;10530801;28;20224;-74
2021/09/02 15:07:23;;;;;;;4.77;4.37;;;25.90;27.50;;;;;;10524567;28;20224;-73
2021/09/02 15:12:28;;;;;;;4.53;4.13;;;25.90;27.30;;;;;;10528962;28;20223;-74
2021/09/02 15:17:31;;;;;;;4.10;3.77;;;25.90;27.00;;;;;;10522897;28;20238;-74
2021/09/02 15:22:34;;;;;;;4.13;3.83;;;26.00;27.50;;;;;;10523797;28;20220;-75
2021/09/02 15:27:39;;;;;;;4.60;4.13;;;26.00;27.40;;;;;;10526527;28;20224;-75
2021/09/02 15:32:42;;;;;;;4.70;4.30;;;26.00;27.10;;;;;;10522880;28;20577;-74
2021/09/02 15:37:47;;;;;;;4.40;4.00;;;26.00;27.40;;;;;;10535681;28;20869;-77
2021/09/02 15:42:51;;;;;;;5.17;4.17;;;26.10;27.10;;;;;;10543287;28;20219;-77
2021/09/02 15:47:54;;;;;;;4.60;4.20;;;26.10;26.80;;;;;;10530925;28;20243;-77
2021/09/02 15:52:57;;;;;;;4.50;4.10;;;26.00;26.90;;;;;;10532967;28;20227;-77
2021/09/02 15:58:04;;;;;;;4.50;4.10;;;26.00;27.00;;;;;;10533103;28;20219;-77
2021/09/02 16:03:10;;;;;;;5.03;4.43;;;26.00;26.60;;;;;;10532576;28;20215;-77
2021/09/02 16:08:20;;;;;;;4.50;4.20;;;26.00;26.80;;;;;;10532481;28;20228;-77
2021/09/02 16:13:25;;;;;;;5.10;4.70;;;26.00;26.50;;;;;;10533343;28;20314;-77
2021/09/02 16:18:28;;;;;;;4.60;4.20;;;26.10;26.60;;;;;;10532246;28;20243;-77
2021/09/02 16:23:31;;;;;;;4.40;4.10;;;26.00;26.80;;;;;;10531896;28;20234;-76
2021/09/02 16:28:36;;;;;;;4.83;4.37;;;26.00;26.90;;;;;;10530537;28;20223;-77
2021/09/02 16:33:41;;;;;;;4.40;4.10;;;26.00;26.60;;;;;;10532394;28;20235;-77
2021/09/02 16:38:45;;;;;;;4.57;4.20;;;25.90;26.70;;;;;;10532658;28;20741;-77
2021/09/02 16:43:56;;;;;;;4.43;4.03;;;25.80;26.90;;;;;;10531593;28;20238;-78
2021/09/02 16:49:06;;;;;;;4.83;4.43;;;25.70;26.50;;;;;;10532958;28;20219;-77
2021/09/02 16:54:16;;;;;;;4.40;4.00;;;25.70;26.70;;;;;;10532825;28;20227;-77
2021/09/02 16:59:21;;;;;;;4.80;4.40;;;25.70;26.90;;;;;;10538574;28;20711;-78
2021/09/02 17:04:27;;;;;;;4.80;4.40;;;25.70;27.30;;;;;;10540625;28;20562;-76
2021/09/02 17:09:52;;;;;;;6.00;4.37;;;25.70;27.20;;;;;;10540987;28;20232;-78
2021/09/02 17:15:00;;;;;;;5.20;4.80;;;25.60;27.30;;;;;;10541308;28;20223;-77
2021/09/02 17:20:04;;;;;;;5.03;4.63;;;25.60;27.40;;;;;;10540643;28;20235;-77
2021/09/02 17:25:11;;;;;;;5.00;4.50;;;25.60;27.60;;;;;;10540611;28;20661;-78
2021/09/02 17:30:16;;;;;;;5.20;4.50;;;25.50;27.80;;;;;;10539639;28;20220;-78
2021/09/02 17:35:20;;;;;;;5.00;4.60;;;25.50;28.20;;;;;;10539416;28;20246;-78
2021/09/02 17:40:23;;;;;;;5.00;4.57;;;25.40;28.40;;;;;;10538503;28;20228;-77
2021/09/02 17:45:29;;;;;;;7.70;5.30;;;25.40;28.60;;;;;;10538976;28;20223;-78
2021/09/02 17:50:33;;;;;;;7.13;4.77;;;25.20;28.80;;;;;;10538891;28;20227;-78
2021/09/02 17:55:37;;;;;;;5.47;5.00;;;25.00;28.70;;;;;;10530649;28;20228;-78
2021/09/02 18:00:43;;;;;;;5.57;5.07;;;24.90;28.60;;;;;;10527152;28;20235;-78
2021/09/02 18:05:49;;;;;;;5.47;5.03;;;24.80;28.80;;;;;;10538565;28;20314;-78
2021/09/02 18:10:52;;;;;;;5.27;4.77;;;24.60;28.80;;;;;;10537854;28;20251;-77
2021/09/02 18:15:58;;;;;;;4.73;4.33;;;24.50;28.80;;;;;;10537315;28;20726;-77
2021/09/02 18:21:01;;;;;;;4.63;4.23;;;24.30;29.40;;;;;;10531497;28;20596;-78
2021/09/02 18:26:04;;;;;;;5.10;4.57;;;24.20;29.00;;;;;;10526289;28;20740;-77
2021/09/02 18:31:09;;;;;;;3.97;3.67;;;24.10;29.30;;;;;;10518949;28;20219;-78
2021/09/02 18:36:13;;;;;;;4.17;3.87;;;23.90;29.60;;;;;;10520375;28;20219;-79
2021/09/02 18:41:25;;;;;;;4.70;4.30;;;23.80;29.50;;;;;;10520244;28;21225;-79
2021/09/02 18:46:31;;;;;;;4.77;4.37;;;23.70;29.70;;;;;;10527256;28;20227;-78
2021/09/02 18:51:34;;;;;;;4.73;4.33;;;23.60;29.90;;;;;;10535546;28;20492;-79
2021/09/02 18:56:38;;;;;;;4.73;4.33;;;23.50;29.80;;;;;;10540711;28;20310;-80
2021/09/02 19:01:47;;;;;;;5.43;4.00;;;23.30;29.70;;;;;;10537249;28;20250;-80
2021/09/02 19:06:55;;;;;;;4.30;4.00;;;23.20;30.10;;;;;;10540711;28;20239;-80
2021/09/02 19:12:04;;;;;;;4.60;4.30;;;23.10;30.00;;;;;;10535301;28;20321;-80
2021/09/02 19:17:11;;;;;;;4.50;4.10;;;23.00;30.30;;;;;;10539351;28;20577;-80
2021/09/02 19:22:16;;;;;;;4.10;3.73;;;22.90;30.50;;;;;;10533934;28;20220;-79
2021/09/02 19:27:20;;;;;;;4.07;3.70;;;22.70;30.00;;;;;;10535825;28;20231;-80
2021/09/02 19:32:26;;;;;;;4.40;4.00;;;22.60;30.30;;;;;;10542198;28;20257;-79
2021/09/02 19:37:32;;;;;;;4.07;3.77;;;22.50;30.40;;;;;;10537802;28;20306;-80
2021/09/02 19:42:36;;;;;;;3.87;3.57;;;22.40;30.50;;;;;;10535853;28;20224;-80
2021/09/02 19:47:42;;;;;;;4.03;3.60;;;22.30;30.30;;;;;;10535789;28;20224;-80
2021/09/02 19:53:03;;;;;;;3.57;3.27;;;22.10;30.60;;;;;;10535719;28;20314;-79
2021/09/02 19:58:09;;;;;;;4.37;3.67;;;22.10;30.40;;;;;;10537792;28;20295;-80
2021/09/02 20:03:18;;;;;;;4.20;3.80;;;21.90;30.70;;;;;;10535194;28;20227;-80
2021/09/02 20:08:24;;;;;;;4.43;4.03;;;21.80;30.90;;;;;;10532909;28;20224;-80
2021/09/02 20:13:29;;;;;;;5.10;4.70;;;21.70;30.90;;;;;;10534663;28;20295;-81
2021/09/02 20:18:36;;;;;;;4.80;4.10;;;21.60;30.80;;;;;;10538080;28;20227;-80
2021/09/02 20:23:41;;;;;;;4.10;3.80;;;21.50;31.00;;;;;;10533756;28;20232;-80
2021/09/02 20:28:51;;;;;;;3.80;3.43;;;21.40;31.00;;;;;;10533872;28;20224;-80
2021/09/02 20:33:57;;;;;;;4.40;4.10;;;21.30;30.90;;;;;;10539963;28;20226;-80
2021/09/02 20:39:05;;;;;;;4.60;4.23;;;21.20;31.30;;;;;;10544766;28;20212;-80
2021/09/02 20:44:10;;;;;;;4.70;4.30;;;21.00;31.30;;;;;;10539336;28;20230;-80
2021/09/02 20:49:19;;;;;;;4.73;4.37;;;20.90;31.00;;;;;;10542335;28;20216;-79
2021/09/02 20:54:25;;;;;;;4.57;4.17;;;20.70;31.70;;;;;;10539631;28;20663;-80
2021/09/02 20:59:29;;;;;;;5.37;4.87;;;20.60;31.40;;;;;;10543417;28;20590;-80
2021/09/02 21:04:37;;;;;;;4.80;4.40;;;20.40;31.50;;;;;;10537570;28;20239;-80
2021/09/02 21:09:42;;;;;;;4.97;4.57;;;20.30;31.90;;;;;;10539613;28;20224;-80
2021/09/02 21:14:49;;;;;;;5.20;4.73;;;20.20;32.10;;;;;;10543833;28;20228;-80
2021/09/02 21:19:57;;;;;;;4.03;3.73;;;20.10;31.90;;;;;;10538432;28;20223;-80
2021/09/02 21:25:05;;;;;;;4.13;3.83;;;20.00;32.20;;;;;;10544868;28;20887;-80
2021/09/02 21:30:14;;;;;;;4.00;3.70;;;19.90;32.40;;;;;;10538117;28;20222;-81
2021/09/02 21:35:22;;;;;;;4.63;4.23;;;19.90;32.30;;;;;;10543393;28;20829;-81
2021/09/02 21:40:29;;;;;;;5.00;4.60;;;19.80;32.50;;;;;;10539870;28;20231;-80
2021/09/02 21:45:35;;;;;;;4.80;4.40;;;19.80;32.40;;;;;;10536224;28;20223;-80
2021/09/02 21:50:42;;;;;;;4.90;4.50;;;19.70;32.50;;;;;;10540089;28;20220;-80
2021/09/02 21:55:47;;;;;;;4.07;3.77;;;19.60;32.30;;;;;;10535251;28;20224;-80
2021/09/02 22:00:50;;;;;;;4.43;4.03;;;19.50;32.00;;;;;;10536300;28;20215;-80
2021/09/02 22:05:55;;;;;;;3.90;3.60;;;19.40;32.20;;;;;;10538924;28;20227;-80
2021/09/02 22:11:01;;;;;;;4.07;3.77;;;19.30;32.40;;;;;;10539874;28;20695;-80
2021/09/02 22:16:10;;;;;;;4.00;3.70;;;19.10;31.80;;;;;;10539205;28;20601;-80
2021/09/02 22:21:17;;;;;;;4.30;4.00;;;19.00;32.60;;;;;;10531974;28;20231;-80
2021/09/02 22:26:22;;;;;;;4.60;4.20;;;18.80;32.60;;;;;;10538535;28;20227;-80
2021/09/02 22:31:27;;;;;;;4.70;4.30;;;18.70;32.60;;;;;;10534538;28;20231;-80
2021/09/02 22:36:33;;;;;;;4.80;3.90;;;18.60;32.90;;;;;;10537704;28;20605;-80
2021/09/02 22:41:37;;;;;;;5.20;4.70;;;18.60;33.10;;;;;;10535763;28;20243;-80
2021/09/02 22:46:42;;;;;;;4.37;3.97;;;18.50;32.80;;;;;;10537153;28;20234;-79
2021/09/02 22:51:47;;;;;;;4.20;3.90;;;18.40;32.70;;;;;;10535720;28;20237;-79
2021/09/02 22:56:51;;;;;;;4.70;4.30;;;18.40;33.00;;;;;;10530701;28;20723;-79
2021/09/02 23:01:54;;;;;;;4.53;4.13;;;18.30;32.70;;;;;;10528862;28;20239;-79
2021/09/02 23:07:05;;;;;;;4.60;4.20;;;18.30;32.90;;;;;;10533329;28;20475;-79
2021/09/02 23:12:14;;;;;;;4.10;3.80;;;18.20;33.60;;;;;;10530286;28;20302;-80
2021/09/02 23:17:22;;;;;;;4.87;4.47;;;18.20;33.20;;;;;;10530923;28;20605;-79
2021/09/02 23:22:28;;;;;;;4.87;3.93;;;18.20;33.50;;;;;;10526713;28;20231;-79
2021/09/02 23:27:34;;;;;;;4.13;3.83;;;18.10;33.60;;;;;;10530945;28;20307;-79
2021/09/02 23:32:38;;;;;;;4.20;3.90;;;18.10;33.20;;;;;;10529849;28;20227;-79
2021/09/02 23:37:42;;;;;;;4.40;4.10;;;18.00;33.10;;;;;;10533199;28;20300;-80
2021/09/02 23:42:50;;;;;;;4.03;3.73;;;17.80;33.10;;;;;;10534630;28;20223;-80
2021/09/02 23:47:53;;;;;;;3.77;3.47;;;17.70;33.60;;;;;;10536122;28;20238;-80
2021/09/02 23:53:00;;;;;;;5.90;4.20;;;17.50;33.20;;;;;;10533600;28;20227;-80
2021/09/02 23:58:04;;;;;;;3.80;3.50;;;17.40;34.20;;;;;;10532684;28;20216;-79
